createdAt,value
2019-03-29T00:01:43.312Z,10.00
2019-03-29T00:04:11.910Z,9.90
2019-03-29T00:06:40.444Z,9.90
2019-03-29T00:09:09.004Z,9.90
2019-03-29T00:11:38.230Z,9.90
2019-03-29T00:14:07.515Z,9.90
2019-03-29T00:16:36.056Z,9.90
2019-03-29T00:19:04.622Z,9.90
2019-03-29T00:21:34.019Z,9.90
2019-03-29T00:24:06.894Z,9.90
2019-03-29T00:26:33.039Z,9.90
2019-03-29T00:29:03.097Z,9.90
2019-03-29T00:31:31.702Z,9.90
2019-03-29T00:34:00.242Z,10.00
2019-03-29T00:36:31.617Z,10.00
2019-03-29T00:39:00.180Z,10.00
2019-03-29T00:41:28.749Z,10.00
2019-03-29T00:43:57.272Z,10.00
2019-03-29T00:46:25.848Z,10.00
2019-03-29T00:48:54.417Z,10.00
2019-03-29T00:51:22.993Z,10.00
2019-03-29T00:53:51.564Z,9.90
2019-03-29T00:56:20.118Z,9.90
2019-03-29T00:58:48.874Z,9.90
2019-03-29T01:01:17.647Z,9.90
2019-03-29T01:03:46.253Z,9.80
2019-03-29T01:06:15.209Z,9.80
2019-03-29T01:08:43.791Z,9.80
2019-03-29T01:11:12.343Z,9.80
2019-03-29T01:13:40.870Z,9.80
2019-03-29T01:16:09.429Z,9.90
2019-03-29T01:18:38.285Z,9.90
2019-03-29T01:21:06.869Z,9.90
2019-03-29T01:23:35.432Z,9.90
2019-03-29T01:26:03.974Z,9.90
2019-03-29T01:28:32.512Z,9.80
2019-03-29T01:31:01.081Z,9.80
2019-03-29T01:33:29.627Z,9.80
2019-03-29T01:35:58.189Z,9.80
2019-03-29T01:38:26.711Z,9.90
2019-03-29T01:40:55.274Z,9.80
2019-03-29T01:43:23.811Z,9.80
2019-03-29T01:45:52.350Z,9.80
2019-03-29T01:48:20.923Z,9.80
2019-03-29T01:50:49.456Z,9.80
2019-03-29T01:53:18.025Z,9.80
2019-03-29T01:55:46.586Z,9.80
2019-03-29T01:58:15.256Z,9.80
2019-03-29T02:00:43.920Z,9.80
2019-03-29T02:03:13.164Z,9.80
2019-03-29T02:05:41.879Z,9.80
2019-03-29T02:08:10.446Z,9.80
2019-03-29T02:10:38.987Z,9.80
2019-03-29T02:13:07.563Z,9.80
2019-03-29T02:15:36.100Z,9.80
2019-03-29T02:18:04.859Z,9.90
2019-03-29T02:20:33.506Z,9.80
2019-03-29T02:23:02.118Z,9.80
2019-03-29T02:25:30.629Z,9.70
2019-03-29T02:27:59.249Z,9.70
2019-03-29T02:30:27.793Z,9.70
2019-03-29T02:32:56.364Z,9.70
2019-03-29T02:35:24.870Z,9.70
2019-03-29T02:37:53.411Z,9.70
2019-03-29T02:40:22.810Z,9.70
2019-03-29T02:42:51.718Z,9.80
2019-03-29T02:45:20.236Z,9.80
2019-03-29T02:47:49.172Z,9.80
2019-03-29T02:50:17.757Z,9.80
2019-03-29T02:52:46.321Z,9.80
2019-03-29T02:55:14.877Z,9.80
2019-03-29T02:57:43.433Z,9.80
2019-03-29T03:00:12.935Z,9.80
2019-03-29T03:02:41.512Z,9.80
2019-03-29T03:05:10.400Z,9.80
2019-03-29T03:07:39.000Z,9.80
2019-03-29T03:10:08.781Z,9.80
2019-03-29T03:12:37.401Z,9.80
2019-03-29T03:15:08.208Z,9.80
2019-03-29T03:17:36.935Z,9.80
2019-03-29T03:20:08.057Z,9.80
2019-03-29T03:22:36.683Z,9.80
2019-03-29T03:25:06.087Z,9.70
2019-03-29T03:27:34.688Z,9.80
2019-03-29T03:30:03.703Z,9.70
2019-03-29T03:32:32.244Z,9.80
2019-03-29T03:35:00.978Z,9.70
2019-03-29T03:37:29.559Z,9.70
2019-03-29T03:39:58.096Z,9.70
2019-03-29T03:42:26.843Z,9.70
2019-03-29T03:44:55.402Z,9.80
2019-03-29T03:47:23.934Z,9.70
2019-03-29T03:49:52.498Z,9.80
2019-03-29T03:52:21.156Z,9.80
2019-03-29T03:54:49.734Z,9.70
2019-03-29T03:57:19.461Z,9.70
2019-03-29T03:59:49.242Z,9.70
2019-03-29T04:02:17.775Z,9.70
2019-03-29T04:04:46.356Z,9.70
2019-03-29T04:07:14.880Z,9.60
2019-03-29T04:09:49.751Z,9.70
2019-03-29T04:12:13.870Z,9.70
2019-03-29T04:14:42.453Z,9.70
2019-03-29T04:17:10.990Z,9.70
2019-03-29T04:19:39.522Z,9.70
2019-03-29T04:22:08.066Z,9.70
2019-03-29T04:24:36.644Z,9.70
2019-03-29T04:27:05.220Z,9.70
2019-03-29T04:29:33.804Z,9.70
2019-03-29T04:32:02.363Z,9.70
2019-03-29T04:34:30.920Z,9.70
2019-03-29T04:36:59.474Z,9.70
2019-03-29T04:39:28.051Z,9.70
2019-03-29T04:41:56.604Z,9.70
2019-03-29T04:44:25.162Z,9.70
2019-03-29T04:46:53.733Z,9.70
2019-03-29T04:49:22.333Z,9.60
2019-03-29T04:51:51.191Z,9.70
2019-03-29T04:54:19.791Z,9.60
2019-03-29T04:56:48.339Z,9.60
2019-03-29T04:59:16.865Z,9.70
2019-03-29T05:01:45.428Z,9.70
2019-03-29T05:04:13.996Z,9.70
2019-03-29T05:06:42.557Z,9.70
2019-03-29T05:09:11.100Z,9.60
2019-03-29T05:11:39.644Z,9.60
2019-03-29T05:14:08.202Z,9.60
2019-03-29T05:16:36.779Z,9.60
2019-03-29T05:19:05.324Z,9.60
2019-03-29T05:21:33.914Z,9.60
2019-03-29T05:24:02.451Z,9.60
2019-03-29T05:26:31.040Z,9.60
2019-03-29T05:28:59.577Z,9.60
2019-03-29T05:31:28.187Z,9.60
2019-03-29T05:33:56.728Z,9.70
2019-03-29T05:36:25.287Z,9.70
2019-03-29T05:38:53.829Z,9.70
2019-03-29T05:41:22.392Z,9.70
2019-03-29T05:43:50.936Z,9.70
2019-03-29T05:46:19.511Z,9.80
2019-03-29T05:48:48.042Z,9.80
2019-03-29T05:51:16.604Z,9.90
2019-03-29T05:53:45.158Z,9.90
2019-03-29T05:56:13.736Z,9.90
2019-03-29T05:58:42.312Z,9.90
2019-03-29T06:01:10.875Z,9.90
2019-03-29T06:03:39.425Z,9.90
2019-03-29T06:06:07.984Z,9.90
2019-03-29T06:08:36.527Z,9.90
2019-03-29T06:11:05.126Z,9.90
2019-03-29T06:13:33.676Z,10.00
2019-03-29T06:16:02.230Z,10.00
2019-03-29T06:18:30.829Z,10.00
2019-03-29T06:20:59.371Z,10.00
2019-03-29T06:23:27.951Z,10.10
2019-03-29T06:25:56.520Z,10.10
2019-03-29T06:28:25.130Z,10.00
2019-03-29T06:30:53.676Z,10.00
2019-03-29T06:33:22.237Z,10.10
2019-03-29T06:35:53.246Z,10.10
2019-03-29T06:38:24.451Z,10.20
2019-03-29T06:41:02.908Z,10.20
2019-03-29T06:43:23.438Z,10.20
2019-03-29T06:45:52.041Z,10.20
2019-03-29T06:48:20.606Z,10.20
2019-03-29T06:50:49.275Z,10.30
2019-03-29T06:53:17.934Z,10.30
2019-03-29T06:55:46.503Z,10.30
2019-03-29T06:58:15.085Z,10.30
2019-03-29T07:00:46.517Z,10.40
2019-03-29T07:03:14.099Z,10.50
2019-03-29T07:05:42.652Z,10.60
2019-03-29T07:08:11.238Z,10.60
2019-03-29T07:10:39.776Z,10.70
2019-03-29T07:13:08.357Z,10.70
2019-03-29T07:15:36.919Z,10.80
2019-03-29T07:18:05.459Z,10.90
2019-03-29T07:20:34.041Z,10.90
2019-03-29T07:23:02.623Z,10.80
2019-03-29T07:25:31.189Z,11.00
2019-03-29T07:27:59.746Z,11.10
2019-03-29T07:30:28.338Z,11.10
2019-03-29T07:32:56.912Z,11.10
2019-03-29T07:35:25.446Z,11.20
2019-03-29T07:37:53.992Z,11.20
2019-03-29T07:40:22.582Z,11.20
2019-03-29T07:42:51.122Z,11.20
2019-03-29T07:45:19.713Z,11.30
2019-03-29T07:47:48.306Z,11.30
2019-03-29T07:50:19.122Z,11.30
2019-03-29T07:52:47.344Z,11.40
2019-03-29T07:55:15.898Z,11.50
2019-03-29T07:57:44.448Z,11.60
2019-03-29T08:00:13.390Z,11.60
2019-03-29T08:02:41.894Z,11.60
2019-03-29T08:05:10.606Z,11.70
2019-03-29T08:07:39.150Z,11.80
2019-03-29T08:10:07.849Z,11.90
2019-03-29T08:12:36.445Z,12.00
2019-03-29T08:15:05.412Z,12.10
2019-03-29T08:17:34.020Z,12.20
2019-03-29T08:20:36.437Z,12.10
2019-03-29T08:22:33.306Z,12.20
2019-03-29T08:25:02.051Z,12.20
2019-03-29T08:27:30.651Z,12.30
2019-03-29T08:30:00.405Z,12.40
2019-03-29T08:32:28.999Z,12.40
2019-03-29T08:34:57.664Z,12.50
2019-03-29T08:37:26.207Z,12.50
2019-03-29T08:39:56.640Z,12.60
2019-03-29T08:42:25.411Z,12.70
2019-03-29T08:44:53.876Z,12.80
2019-03-29T08:47:22.851Z,12.90
2019-03-29T08:49:51.505Z,12.80
2019-03-29T08:52:21.845Z,12.80
2019-03-29T08:54:51.304Z,12.80
2019-03-29T08:57:20.248Z,12.90
2019-03-29T08:59:48.885Z,12.90
2019-03-29T09:02:17.751Z,13.00
2019-03-29T09:04:46.344Z,13.10
2019-03-29T09:07:14.929Z,13.30
2019-03-29T09:09:46.382Z,13.30
2019-03-29T09:12:15.103Z,13.30
2019-03-29T09:14:43.783Z,13.30
2019-03-29T09:17:12.362Z,13.30
2019-03-29T09:19:40.994Z,13.40
2019-03-29T09:22:09.628Z,13.40
2019-03-29T09:24:38.176Z,13.60
2019-03-29T09:27:06.773Z,13.70
2019-03-29T09:29:35.319Z,13.70
2019-03-29T09:32:03.876Z,13.70
2019-03-29T09:34:32.507Z,13.80
2019-03-29T09:37:01.168Z,13.90
2019-03-29T09:39:29.728Z,13.90
2019-03-29T09:41:58.445Z,13.90
2019-03-29T09:44:26.992Z,13.90
2019-03-29T09:46:55.586Z,13.80
2019-03-29T09:49:24.233Z,13.80
2019-03-29T09:51:52.848Z,13.80
2019-03-29T09:54:21.458Z,13.80
2019-03-29T09:56:50.116Z,13.70
2019-03-29T09:59:18.707Z,13.70
2019-03-29T10:01:47.292Z,13.70
2019-03-29T10:04:15.927Z,13.60
2019-03-29T10:06:44.479Z,13.40
2019-03-29T10:09:13.068Z,13.40
2019-03-29T10:11:41.644Z,13.40
2019-03-29T10:14:10.262Z,13.30
2019-03-29T10:16:38.862Z,13.30
2019-03-29T10:19:07.463Z,13.30
2019-03-29T10:21:36.032Z,13.40
2019-03-29T10:24:04.589Z,13.50
2019-03-29T10:26:33.165Z,13.40
2019-03-29T10:29:01.764Z,13.20
2019-03-29T10:31:32.366Z,13.30
2019-03-29T10:34:01.093Z,13.30
2019-03-29T10:36:29.660Z,13.50
2019-03-29T10:38:58.239Z,13.60
2019-03-29T10:41:26.808Z,13.70
2019-03-29T10:43:55.366Z,13.70
2019-03-29T10:46:23.953Z,13.60
2019-03-29T10:48:52.509Z,13.80
2019-03-29T10:51:21.079Z,14.00
2019-03-29T10:53:49.662Z,13.90
2019-03-29T10:56:18.209Z,13.80
2019-03-29T10:58:46.776Z,13.80
2019-03-29T11:01:15.358Z,13.90
2019-03-29T11:03:44.037Z,14.00
2019-03-29T11:06:12.928Z,14.30
2019-03-29T11:08:43.595Z,14.30
2019-03-29T11:11:12.035Z,14.60
2019-03-29T11:13:41.128Z,14.70
2019-03-29T11:16:10.825Z,15.00
2019-03-29T11:18:39.408Z,15.50
2019-03-29T11:21:07.988Z,16.10
2019-03-29T11:23:36.571Z,16.70
2019-03-29T11:26:05.123Z,16.50
2019-03-29T11:28:33.702Z,16.60
2019-03-29T11:31:02.277Z,16.70
2019-03-29T11:33:30.838Z,16.80
2019-03-29T11:35:59.465Z,16.70
2019-03-29T11:38:28.016Z,16.50
2019-03-29T11:40:57.370Z,16.30
2019-03-29T11:43:27.423Z,16.20
2019-03-29T11:45:56.178Z,16.10
2019-03-29T11:48:25.602Z,15.80
2019-03-29T11:50:54.224Z,15.70
2019-03-29T11:53:22.830Z,15.80
2019-03-29T11:55:52.264Z,16.30
2019-03-29T11:58:20.846Z,16.40
2019-03-29T12:00:49.438Z,16.70
2019-03-29T12:03:18.217Z,16.60
2019-03-29T12:05:46.936Z,16.30
2019-03-29T12:08:15.509Z,16.50
2019-03-29T12:10:44.093Z,16.40
2019-03-29T12:13:12.772Z,16.50
2019-03-29T12:15:41.317Z,16.20
2019-03-29T12:18:09.877Z,16.30
2019-03-29T12:20:38.437Z,16.50
2019-03-29T12:23:07.033Z,16.60
2019-03-29T12:25:35.578Z,17.20
2019-03-29T12:28:04.661Z,19.50
2019-03-29T12:30:33.529Z,22.80
2019-03-29T12:33:02.118Z,25.80
2019-03-29T12:35:30.739Z,27.90
2019-03-29T12:37:59.313Z,29.10
2019-03-29T12:40:27.905Z,29.30
2019-03-29T12:42:56.721Z,30.30
2019-03-29T12:45:25.345Z,30.30
2019-03-29T12:47:53.927Z,30.30
2019-03-29T12:50:22.492Z,29.90
2019-03-29T12:52:51.086Z,29.70
2019-03-29T12:55:19.705Z,31.00
2019-03-29T12:57:48.297Z,30.40
2019-03-29T13:00:17.515Z,29.70
2019-03-29T13:02:46.098Z,30.40
2019-03-29T13:05:14.789Z,32.10
2019-03-29T13:07:43.456Z,32.60
2019-03-29T13:10:12.724Z,32.70
2019-03-29T13:12:41.378Z,32.80
2019-03-29T13:15:10.315Z,32.90
2019-03-29T13:17:38.956Z,33.20
2019-03-29T13:20:08.084Z,32.80
2019-03-29T13:22:36.668Z,32.50
2019-03-29T13:25:07.546Z,32.10
2019-03-29T13:27:36.202Z,32.20
2019-03-29T13:30:06.693Z,27.90
2019-03-29T13:32:35.243Z,27.90
2019-03-29T13:35:04.766Z,28.90
2019-03-29T13:37:33.360Z,28.90
2019-03-29T13:40:01.990Z,29.30
2019-03-29T13:42:30.583Z,28.60
2019-03-29T13:44:59.157Z,28.30
2019-03-29T13:47:27.746Z,29.20
2019-03-29T13:49:56.347Z,29.10
2019-03-29T13:52:24.954Z,29.90
2019-03-29T13:54:53.491Z,29.80
2019-03-29T13:57:22.082Z,29.60
2019-03-29T13:59:50.706Z,28.40
2019-03-29T14:02:19.325Z,28.20
2019-03-29T14:04:47.909Z,29.20
2019-03-29T14:07:16.494Z,29.50
2019-03-29T14:09:45.074Z,29.90
2019-03-29T14:12:13.710Z,29.50
2019-03-29T14:14:42.314Z,29.00
2019-03-29T14:17:10.904Z,28.80
2019-03-29T14:19:39.597Z,28.80
2019-03-29T14:22:08.186Z,29.00
2019-03-29T14:24:36.731Z,28.40
2019-03-29T14:27:05.325Z,27.50
2019-03-29T14:29:33.954Z,28.30
2019-03-29T14:32:02.550Z,28.90
2019-03-29T14:34:31.127Z,29.10
2019-03-29T14:36:59.947Z,29.30
2019-03-29T14:39:28.750Z,28.80
2019-03-29T14:41:57.731Z,27.40
2019-03-29T14:44:26.290Z,26.50
2019-03-29T14:46:54.886Z,26.10
2019-03-29T14:49:23.465Z,25.50
2019-03-29T14:51:52.019Z,24.60
2019-03-29T14:54:20.599Z,23.60
2019-03-29T14:56:49.154Z,23.10
2019-03-29T14:59:17.868Z,22.10
2019-03-29T15:01:46.426Z,21.60
2019-03-29T15:04:15.047Z,20.80
2019-03-29T15:06:43.647Z,20.30
2019-03-29T15:09:12.227Z,19.70
2019-03-29T15:11:40.790Z,19.20
2019-03-29T15:14:09.377Z,18.50
2019-03-29T15:16:37.945Z,18.00
2019-03-29T15:19:06.546Z,17.70
2019-03-29T15:21:35.091Z,17.60
2019-03-29T15:24:03.656Z,17.40
2019-03-29T15:26:32.219Z,17.10
2019-03-29T15:29:00.849Z,16.70
2019-03-29T15:31:29.409Z,16.40
2019-03-29T15:33:57.991Z,16.20
2019-03-29T15:36:26.552Z,16.10
2019-03-29T15:38:55.132Z,16.10
2019-03-29T15:41:23.679Z,16.10
2019-03-29T15:43:52.253Z,15.90
2019-03-29T15:46:20.822Z,15.70
2019-03-29T15:48:49.379Z,15.60
2019-03-29T15:51:17.981Z,15.50
2019-03-29T15:53:46.534Z,15.40
2019-03-29T15:56:15.091Z,15.40
2019-03-29T15:58:43.663Z,15.50
2019-03-29T16:01:12.240Z,15.40
2019-03-29T16:03:40.796Z,15.40
2019-03-29T16:06:09.359Z,15.40
2019-03-29T16:08:37.945Z,15.40
2019-03-29T16:11:09.054Z,15.40
2019-03-29T16:13:36.981Z,15.30
2019-03-29T16:16:05.546Z,15.30
2019-03-29T16:18:34.106Z,15.20
2019-03-29T16:21:02.927Z,15.20
2019-03-29T16:23:31.494Z,15.10
2019-03-29T16:26:00.090Z,14.90
2019-03-29T16:28:28.676Z,14.90
2019-03-29T16:30:57.244Z,14.90
2019-03-29T16:33:25.807Z,14.90
2019-03-29T16:35:54.348Z,14.90
2019-03-29T16:38:23.147Z,14.80
2019-03-29T16:40:51.702Z,14.70
2019-03-29T16:43:20.298Z,14.60
2019-03-29T16:45:48.861Z,14.60
2019-03-29T16:48:17.418Z,14.60
2019-03-29T16:50:45.990Z,14.60
2019-03-29T16:53:14.558Z,14.50
2019-03-29T16:55:43.236Z,14.40
2019-03-29T16:58:11.821Z,14.30
2019-03-29T17:00:40.368Z,14.30
2019-03-29T17:03:08.967Z,14.30
2019-03-29T17:05:37.505Z,14.20
2019-03-29T17:08:06.243Z,14.20
2019-03-29T17:10:34.800Z,14.10
2019-03-29T17:13:03.397Z,14.00
2019-03-29T17:15:31.922Z,13.90
2019-03-29T17:18:00.483Z,13.80
2019-03-29T17:20:29.095Z,13.80
2019-03-29T17:22:57.678Z,13.70
2019-03-29T17:25:26.250Z,13.60
2019-03-29T17:27:54.854Z,13.60
2019-03-29T17:30:59.807Z,13.40
2019-03-29T17:33:28.643Z,13.30
2019-03-29T17:35:57.274Z,13.20
2019-03-29T17:38:25.819Z,13.20
2019-03-29T17:40:54.450Z,13.10
2019-03-29T17:43:22.992Z,13.00
2019-03-29T17:45:51.842Z,13.00
2019-03-29T17:48:20.405Z,12.90
2019-03-29T17:50:50.706Z,12.90
2019-03-29T17:53:19.303Z,12.80
2019-03-29T17:55:47.896Z,12.70
2019-03-29T17:58:16.451Z,12.60
2019-03-29T18:00:45.048Z,12.50
2019-03-29T18:03:13.626Z,12.50
2019-03-29T18:05:42.239Z,12.40
2019-03-29T18:08:10.788Z,12.40
2019-03-29T18:10:39.387Z,12.30
2019-03-29T18:13:07.983Z,12.30
2019-03-29T18:15:36.544Z,12.20
2019-03-29T18:18:05.098Z,12.20
2019-03-29T18:20:33.710Z,12.10
2019-03-29T18:23:02.291Z,12.00
2019-03-29T18:25:30.863Z,12.00
2019-03-29T18:27:59.411Z,12.00
2019-03-29T18:33:07.638Z,12.00
2019-03-29T18:35:36.500Z,11.90
2019-03-29T18:38:05.130Z,11.90
2019-03-29T18:40:33.694Z,11.80
2019-03-29T18:43:02.286Z,11.80
2019-03-29T18:45:30.827Z,11.80
2019-03-29T18:47:59.422Z,11.80
2019-03-29T18:50:28.014Z,11.70
2019-03-29T18:52:56.548Z,11.70
2019-03-29T18:55:25.133Z,11.60
2019-03-29T18:57:53.729Z,11.60
2019-03-29T19:00:32.743Z,11.50
2019-03-29T19:03:01.679Z,11.50
2019-03-29T19:05:30.561Z,11.40
2019-03-29T19:07:59.138Z,11.40
2019-03-29T19:10:27.677Z,11.30
2019-03-29T19:12:56.240Z,11.30
2019-03-29T19:15:24.883Z,11.30
2019-03-29T19:17:53.480Z,11.20
2019-03-29T19:20:27.827Z,11.20
2019-03-29T19:22:52.566Z,11.10
2019-03-29T19:25:21.140Z,11.10
2019-03-29T19:27:49.738Z,11.10
2019-03-29T19:30:18.933Z,11.00
2019-03-29T19:32:47.975Z,10.90
2019-03-29T19:35:16.858Z,10.90
2019-03-29T19:37:45.431Z,10.90
2019-03-29T19:40:14.229Z,10.80
2019-03-29T19:42:42.809Z,10.80
2019-03-29T19:45:12.278Z,10.70
2019-03-29T19:47:40.870Z,10.70
2019-03-29T19:50:10.177Z,10.60
2019-03-29T19:52:38.753Z,10.60
2019-03-29T19:55:07.625Z,10.50
2019-03-29T19:57:36.332Z,10.50
2019-03-29T20:00:06.610Z,10.50
2019-03-29T20:02:35.295Z,10.40
2019-03-29T20:05:04.388Z,10.50
2019-03-29T20:07:32.976Z,10.40
2019-03-29T20:10:01.590Z,10.40
2019-03-29T20:12:30.277Z,10.50
2019-03-29T20:14:58.878Z,10.60
2019-03-29T20:17:28.009Z,10.50
2019-03-29T20:19:56.674Z,10.40
2019-03-29T20:22:25.321Z,10.30
2019-03-29T20:24:53.929Z,10.20
2019-03-29T20:27:22.479Z,10.10
2019-03-29T20:29:51.049Z,10.10
2019-03-29T20:32:19.645Z,10.00
2019-03-29T20:34:48.282Z,10.00
2019-03-29T20:37:16.891Z,9.90
2019-03-29T20:39:45.483Z,9.90
2019-03-29T20:42:14.106Z,9.80
2019-03-29T20:44:42.670Z,9.80
2019-03-29T20:47:11.252Z,9.80
2019-03-29T20:49:39.812Z,9.70
2019-03-29T20:52:08.441Z,9.60
2019-03-29T20:54:37.037Z,9.60
2019-03-29T20:57:05.625Z,9.50
2019-03-29T20:59:34.215Z,9.50
2019-03-29T21:02:03.134Z,9.50
2019-03-29T21:04:31.785Z,9.40
2019-03-29T21:07:01.306Z,9.40
2019-03-29T21:09:29.945Z,9.40
2019-03-29T21:11:58.551Z,9.40
2019-03-29T21:14:27.172Z,9.40
2019-03-29T21:16:55.783Z,9.40
2019-03-29T21:19:25.234Z,9.30
2019-03-29T21:21:53.818Z,9.30
2019-03-29T21:24:22.508Z,9.20
2019-03-29T21:26:51.093Z,9.20
2019-03-29T21:29:19.699Z,9.10
2019-03-29T21:31:48.512Z,9.10
2019-03-29T21:34:17.097Z,9.10
2019-03-29T21:36:45.934Z,9.10
2019-03-29T21:39:14.798Z,9.00
2019-03-29T21:41:43.356Z,9.00
2019-03-29T21:44:11.923Z,8.90
2019-03-29T21:46:40.476Z,8.90
2019-03-29T21:49:09.053Z,8.90
2019-03-29T21:51:37.617Z,8.80
2019-03-29T21:54:06.398Z,8.90
2019-03-29T21:56:34.932Z,8.80
2019-03-29T21:59:03.510Z,8.80
2019-03-29T22:01:32.078Z,8.80
2019-03-29T22:04:00.650Z,8.80
2019-03-29T22:06:29.220Z,8.80
2019-03-29T22:08:57.785Z,8.70
2019-03-29T22:11:26.395Z,8.70
2019-03-29T22:13:56.296Z,8.70
2019-03-29T22:16:24.855Z,8.70
2019-03-29T22:18:53.437Z,8.60
2019-03-29T22:21:22.003Z,8.60
2019-03-29T22:23:50.578Z,8.60
2019-03-29T22:26:19.341Z,8.60
2019-03-29T22:28:47.908Z,8.60
2019-03-29T22:31:16.497Z,8.60
2019-03-29T22:33:45.119Z,8.60
2019-03-29T22:36:13.744Z,8.60
2019-03-29T22:38:42.336Z,8.50
2019-03-29T22:41:10.939Z,8.50
2019-03-29T22:43:39.553Z,8.60
2019-03-29T22:46:08.143Z,8.50
2019-03-29T22:48:36.705Z,8.50
2019-03-29T22:51:05.295Z,8.50
2019-03-29T22:53:33.867Z,8.40
2019-03-29T22:56:02.475Z,8.40
2019-03-29T22:58:31.059Z,8.40
2019-03-29T23:01:01.446Z,8.40
2019-03-29T23:03:30.050Z,8.40
2019-03-29T23:05:58.714Z,8.40
2019-03-29T23:08:27.295Z,8.40
2019-03-29T23:10:55.916Z,8.30
2019-03-29T23:13:24.477Z,8.30
2019-03-29T23:15:53.043Z,8.30
2019-03-29T23:18:21.606Z,8.30
2019-03-29T23:20:50.191Z,8.30
2019-03-29T23:23:18.742Z,8.30
2019-03-29T23:25:47.408Z,8.30
2019-03-29T23:28:15.953Z,8.20
2019-03-29T23:30:44.558Z,8.20
2019-03-29T23:33:13.156Z,8.20
2019-03-29T23:35:41.790Z,8.20
2019-03-29T23:38:10.422Z,8.10
2019-03-29T23:40:39.027Z,8.10
2019-03-29T23:43:07.542Z,8.10
2019-03-29T23:45:36.166Z,8.00
2019-03-29T23:48:04.707Z,8.10
2019-03-29T23:50:33.260Z,8.00
2019-03-29T23:53:01.839Z,8.00
2019-03-29T23:55:30.394Z,8.00
2019-03-29T23:57:58.999Z,8.00
